WetterOnline ( http://www.wetteronline.de )

Wetter aktuell Sauerland (in 400m)

Aktuelles Wetter: Lüdenscheid (392m)

6-stündlich | Neueste Meldungen
Ortszeit Temperatur Wetter
Mi, 23.05. 8:00 13.7° C bedeckt
Mi, 23.05. 2:00 13.4° C bedeckt
Di, 22.05. 20:00 16.7° C wolkig
Di, 22.05. 14:00 15.5° C leichter Regen
Di, 22.05. 8:00 14.4° C bedeckt
Di, 22.05. 2:00 16.1° C wolkig
Mo, 21.05. 20:00 20.2° C bedeckt
Mo, 21.05. 14:00 22.7° C wolkenlos
Ortszeit Temperatur Wetter
Mi, 23.05. 8:30 14.1° C leichter Regen
Mi, 23.05. 8:20 14.1° C leichter Regen
Mi, 23.05. 8:10 14.0° C leichter Regen
Mi, 23.05. 8:00 13.7° C bedeckt
Mi, 23.05. 7:50 13.7° C bedeckt
Mi, 23.05. 7:40 13.3° C leichter Regen
Mi, 23.05. 7:30 13.1° C bedeckt
Mi, 23.05. 7:00 13.0° C leichter Regen
Mi, 23.05. 6:30 12.4° C bewölkt
Mi, 23.05. 6:00 12.1° C bewölkt
Mi, 23.05. 5:30 11.9° C bedeckt
Ortszeit Relative Feuchte Sichtweite
Mi, 23.05. 8:00 91% 25 km
Mi, 23.05. 2:00 86% 35 km
Di, 22.05. 20:00 70% 60 km
Di, 22.05. 14:00 88% 13 km
Di, 22.05. 8:00 74% 45 km
Di, 22.05. 2:00 56% 55 km
Mo, 21.05. 20:00 45% 50 km
Mo, 21.05. 14:00 37% 45 km
Ortszeit Relative Feuchte Sichtweite
Mi, 23.05. 8:30 91% 18 km
Mi, 23.05. 8:20 91% -
Mi, 23.05. 8:10 92% -
Mi, 23.05. 8:00 91% 25 km
Mi, 23.05. 7:50 91% -
Mi, 23.05. 7:40 90% -
Mi, 23.05. 7:30 91% 18 km
Mi, 23.05. 7:00 88% 24 km
Mi, 23.05. 6:30 92% 22 km
Mi, 23.05. 6:00 94% 17 km
Mi, 23.05. 5:30 95% 12 km
Ortszeit Niederschlagsmenge Niederschlagsart
Mi, 23.05. 8:00 0.1 l/m2 in 12 Std. Regen
Mi, 23.05. 2:00 0.1 l/m2 in 6 Std. Regen
Di, 22.05. 20:00 0.7 l/m2 in 12 Std. Regen
Di, 22.05. 14:00 0.6 l/m2 in 6 Std. Regen
Di, 22.05. 8:00 0.0 l/m2 in 12 Std. -
Di, 22.05. 2:00 0.0 l/m2 in 6 Std. -
Mo, 21.05. 20:00 0.0 l/m2 in 12 Std. -
Mo, 21.05. 14:00 0.0 l/m2 in 6 Std. -
Ortszeit Niederschlagsmenge Niederschlagsart
Mi, 23.05. 8:30 0.1 l/m2 in 1 Std. -
Mi, 23.05. 8:20 keine Meldung -
Mi, 23.05. 8:10 keine Meldung -
Mi, 23.05. 8:00 0.1 l/m2 in 1 Std. Regen
Mi, 23.05. 7:50 keine Meldung -
Mi, 23.05. 7:40 keine Meldung -
Mi, 23.05. 7:30 0.1 l/m2 in 1 Std. Schneeregen
Mi, 23.05. 7:00 0.1 l/m2 in 1 Std. Regen
Mi, 23.05. 6:30 0.0 l/m2 in 1 Std. -
Mi, 23.05. 6:00 0.0 l/m2 in 1 Std. -
Mi, 23.05. 5:30 0.0 l/m2 in 1 Std. -
Ortszeit Stärke Spitze Richtung
km/h Bft. km/h Grad Sektor
Mi, 23.05. 8:00 4 1 7 60° NO
Mi, 23.05. 2:00 0 0 14 - -
Di, 22.05. 20:00 9 2 26 80° O
Di, 22.05. 14:00 13 3 19 270° W
Di, 22.05. 8:00 4 1 22 80° O
Di, 22.05. 2:00 14 3 29 100° O
Mo, 21.05. 20:00 9 2 44 110° O
Mo, 21.05. 14:00 17 3 46 90° O
Ortszeit Stärke Spitze Richtung
km/h Bft. km/h Grad Sektor
Mi, 23.05. 8:30 4 1 7 80° O
Mi, 23.05. 8:20 4 1 - 80° O
Mi, 23.05. 8:10 4 1 - 80° O
Mi, 23.05. 8:00 4 1 7 60° NO
Mi, 23.05. 7:50 4 1 - 60° NO
Mi, 23.05. 7:40 4 1 - 100° O
Mi, 23.05. 7:30 4 1 7 100° O
Mi, 23.05. 7:00 4 1 7 100° O
Mi, 23.05. 6:30 4 1 7 110° O
Mi, 23.05. 6:00 4 1 7 50° NO
Mi, 23.05. 5:30 7 2 7 70° O
Ortszeit Untergrenze Bedeckung Gattung
total tief tief mittel hoch
Mi, 23.05. 8:00 2100 m 8/8 8/8 - - -
Mi, 23.05. 2:00 3000 m 8/8 8/8 - - -
Di, 22.05. 20:00 2100 m 8/8 2/8 - - -
Di, 22.05. 14:00 2100 m 8/8 8/8 - - -
Di, 22.05. 8:00 2100 m 8/8 8/8 - - -
Di, 22.05. 2:00 1800 m 7/8 1/8 - - -
Mo, 21.05. 20:00 4200 m 8/8 8/8 - - -
Mo, 21.05. 14:00 - 0/8 0/8 - - -
Ortszeit Bedeckungsgrad in Achtel und Wolkenuntergrenze
Mi, 23.05. 8:30 5(2400m) 8(3000m)
Mi, 23.05. 8:20 5(2400m) 8(3000m)
Mi, 23.05. 8:10 2(2100m) 7(2700m) 8(3300m)
Mi, 23.05. 8:00 7(2100m) 8(2400m)
Mi, 23.05. 7:50 7(2100m) 8(2400m)
Mi, 23.05. 7:40 7(2100m)
Mi, 23.05. 7:30 8(2100m) 8(2400m)
Mi, 23.05. 7:00 8(2100m)
Mi, 23.05. 6:30 4(2100m) 7(2700m) 8(3300m)
Mi, 23.05. 6:00 7(2700m) 8(3300m)
Mi, 23.05. 5:30 8(2400m) 8(3300m)
Ortszeit Luftdruck NN (hPa) Tendenz (hPa in 3 Std.)
Mi, 23.05. 8:00 1018 + 1,3
Mi, 23.05. 2:00 1016 + 0,8
Di, 22.05. 20:00 1014 + 0,4
Di, 22.05. 14:00 1013 + 0,4
Di, 22.05. 8:00 1013 + 0,3
Di, 22.05. 2:00 1012 - 0,9
Mo, 21.05. 20:00 1012 - 0,7
Mo, 21.05. 14:00 1014 - 1,6
Ortszeit Luftdruck NN (hPa) Tendenz (hPa in 3 Std.)
Mi, 23.05. 8:30 1018 + 1,7
Mi, 23.05. 8:20 1018 keine Meldung
Mi, 23.05. 8:10 1018 keine Meldung
Mi, 23.05. 8:00 1018 + 1,3
Mi, 23.05. 7:50 1018 keine Meldung
Mi, 23.05. 7:40 1018 keine Meldung
Mi, 23.05. 7:30 1018 + 0,9
Mi, 23.05. 7:00 1017 + 0,6
Mi, 23.05. 6:30 1017 + 0,5
Mi, 23.05. 6:00 1017 + 0,3
Mi, 23.05. 5:30 1017 + 0,1
Ortszeit Schneehöhe (cm)
Mi, 23.05. 8:00 -
Mi, 23.05. 2:00 -
Di, 22.05. 20:00 -
Di, 22.05. 14:00 -
Di, 22.05. 8:00 -
Di, 22.05. 2:00 -
Mo, 21.05. 20:00 -
Mo, 21.05. 14:00 -
Ortszeit Schneehöhe (cm)
Mi, 23.05. 8:30 -
Mi, 23.05. 8:20 -
Mi, 23.05. 8:10 -
Mi, 23.05. 8:00 -
Mi, 23.05. 7:50 -
Mi, 23.05. 7:40 -
Mi, 23.05. 7:30 -
Mi, 23.05. 7:00 -
Mi, 23.05. 6:30 -
Mi, 23.05. 6:00 -
Mi, 23.05. 5:30 -
Link zu dieser Seite / Seite empfehlen

Das Wetter in ...